Time;durP1;ratioP1;P1;durP2;ratioP2;P2;SDS_P1;SDS_P2;PMS_P1;PMS_P2;Temp;Humidity;BMP_temperature;BMP_pressure;BME280_temperature;BME280_humidity;BME280_pressure;Samples;Min_cycle;Max_cycle;Signal;HPM_P1;HPM_P2
2022/08/22 00:02:51;;;;;;;5.83;2.20;;;19.90;69.60;;;;;;10502719;28;20276;-73
2022/08/22 00:08:00;;;;;;;5.27;1.83;;;19.90;69.80;;;;;;10516580;28;20217;-73
2022/08/22 00:13:39;;;;;;;3.23;2.00;;;19.80;69.90;;;;;;10511769;28;20732;-71
2022/08/22 00:19:08;;;;;;;5.77;2.10;;;19.70;70.50;;;;;;10513949;28;20675;-74
2022/08/22 00:24:28;;;;;;;3.57;1.93;;;19.50;71.20;;;;;;10512711;28;20242;-70
2022/08/22 00:29:44;;;;;;;5.80;2.20;;;19.50;71.30;;;;;;10517456;28;20253;-73
2022/08/22 00:35:04;;;;;;;5.87;2.40;;;19.40;71.30;;;;;;10505035;28;20249;-73
2022/08/22 00:40:38;;;;;;;3.60;2.07;;;19.50;71.40;;;;;;10509733;28;20366;-72
2022/08/22 00:46:08;;;;;;;4.37;2.13;;;19.40;72.00;;;;;;10502315;28;20222;-73
2022/08/22 00:51:46;;;;;;;5.07;2.10;;;19.30;72.70;;;;;;10494227;28;20324;-71
2022/08/22 00:57:14;;;;;;;4.87;2.40;;;19.20;73.40;;;;;;10509290;28;20696;-71
2022/08/22 01:02:48;;;;;;;5.33;2.23;;;19.10;73.80;;;;;;10510478;28;20221;-72
2022/08/22 01:07:51;;;;;;;5.20;2.23;;;18.90;74.80;;;;;;10512694;28;20272;-72
2022/08/22 01:12:52;;;;;;;3.33;2.00;;;18.90;75.10;;;;;;10510384;28;20735;-74
2022/08/22 01:18:21;;;;;;;3.90;1.77;;;19.00;74.90;;;;;;10517429;28;20214;-73
2022/08/22 01:23:49;;;;;;;3.47;1.90;;;18.90;75.10;;;;;;10511838;28;20222;-70
2022/08/22 01:29:27;;;;;;;4.90;2.30;;;18.80;75.30;;;;;;10521186;28;20221;-69
2022/08/22 01:34:39;;;;;;;4.43;2.93;;;18.80;75.40;;;;;;10509700;28;20269;-72
2022/08/22 01:40:29;;;;;;;5.07;2.43;;;18.80;75.60;;;;;;10519447;28;20567;-72
2022/08/22 01:45:45;;;;;;;4.67;2.60;;;18.90;75.90;;;;;;10480485;28;20214;-72
2022/08/22 01:50:55;;;;;;;7.97;2.93;;;18.90;76.30;;;;;;10508259;28;20225;-70
2022/08/22 01:56:16;;;;;;;5.70;3.10;;;18.90;76.80;;;;;;10522895;28;20313;-70
2022/08/22 02:01:36;;;;;;;5.07;3.13;;;18.80;77.30;;;;;;10516226;28;20223;-74
2022/08/22 02:06:40;;;;;;;6.00;3.20;;;18.80;77.80;;;;;;10516299;28;20290;-73
2022/08/22 02:12:29;;;;;;;5.97;3.10;;;18.70;78.50;;;;;;10518111;28;20695;-74
2022/08/22 02:17:45;;;;;;;5.17;3.53;;;18.60;80.50;;;;;;10507834;28;20214;-74
2022/08/22 02:23:19;;;;;;;5.17;3.20;;;18.50;80.30;;;;;;10515555;28;20225;-73
2022/08/22 02:28:51;;;;;;;6.70;3.50;;;18.30;81.30;;;;;;10503591;28;20282;-75
2022/08/22 02:34:00;;;;;;;6.00;3.47;;;18.20;82.30;;;;;;10520069;28;20251;-73
2022/08/22 02:39:28;;;;;;;5.93;3.70;;;18.30;83.00;;;;;;10518358;28;20222;-73
2022/08/22 02:44:35;;;;;;;5.93;3.87;;;18.30;83.40;;;;;;10519380;28;20220;-73
2022/08/22 02:49:51;;;;;;;6.10;3.90;;;18.30;84.60;;;;;;10510677;28;20226;-74
2022/08/22 02:55:12;;;;;;;5.40;4.20;;;18.20;84.00;;;;;;10510530;28;20674;-74
2022/08/22 03:00:39;;;;;;;6.00;3.73;;;18.30;84.50;;;;;;10510973;28;20222;-73
2022/08/22 03:05:54;;;;;;;5.07;3.07;;;18.30;84.80;;;;;;10527662;28;20261;-74
2022/08/22 03:11:26;;;;;;;5.20;3.60;;;18.20;85.30;;;;;;10509850;28;20356;-72
2022/08/22 03:16:35;;;;;;;5.03;3.63;;;18.20;86.00;;;;;;10502461;28;20225;-73
2022/08/22 03:21:43;;;;;;;4.97;3.30;;;18.20;86.00;;;;;;10540647;27;20220;-72
2022/08/22 03:26:47;;;;;;;6.10;3.70;;;18.10;86.60;;;;;;10519962;28;20253;-71
2022/08/22 03:32:14;;;;;;;5.07;3.93;;;18.00;87.50;;;;;;10546399;27;20233;-72
2022/08/22 03:37:18;;;;;;;8.17;4.17;;;17.90;88.40;;;;;;10519008;28;20694;-72
2022/08/22 03:42:31;;;;;;;4.87;4.07;;;17.80;89.60;;;;;;10524857;28;20251;-72
2022/08/22 03:48:01;;;;;;;5.63;3.50;;;17.70;90.50;;;;;;10516039;28;20284;-75
2022/08/22 03:53:20;;;;;;;6.17;4.30;;;17.60;90.60;;;;;;10520600;28;20250;-71
2022/08/22 03:58:39;;;;;;;7.30;4.13;;;17.50;91.30;;;;;;10501997;28;20221;-71
2022/08/22 04:04:17;;;;;;;11.07;4.70;;;17.40;92.10;;;;;;10511339;28;20229;-71
2022/08/22 04:09:41;;;;;;;5.63;4.23;;;17.40;92.80;;;;;;10510525;28;20226;-72
2022/08/22 04:15:06;;;;;;;6.37;4.60;;;17.20;93.60;;;;;;10517960;28;20226;-69
2022/08/22 04:20:08;;;;;;;10.77;5.07;;;17.20;94.70;;;;;;10518692;28;20252;-69
2022/08/22 04:25:34;;;;;;;6.50;4.50;;;17.20;95.40;;;;;;10545236;27;20555;-69
2022/08/22 04:30:53;;;;;;;6.77;5.07;;;17.20;96.20;;;;;;10507906;28;20638;-69
2022/08/22 04:36:16;;;;;;;9.40;5.47;;;17.10;96.90;;;;;;10544780;28;20238;-69
2022/08/22 04:41:35;;;;;;;7.17;5.20;;;17.10;97.70;;;;;;10510344;28;20221;-69
2022/08/22 04:46:51;;;;;;;8.47;5.43;;;17.10;98.50;;;;;;10521454;28;20228;-70
2022/08/22 04:52:04;;;;;;;8.77;5.23;;;17.00;99.10;;;;;;10516720;28;20233;-70
2022/08/22 04:57:32;;;;;;;12.67;5.00;;;17.10;99.90;;;;;;10528864;28;20226;-69
2022/08/22 05:02:36;;;;;;;10.63;4.70;;;17.00;99.90;;;;;;10508647;28;20219;-70
2022/08/22 05:07:48;;;;;;;7.03;5.13;;;17.00;99.90;;;;;;10519889;28;20702;-70
2022/08/22 05:12:54;;;;;;;6.47;4.83;;;17.20;99.90;;;;;;10522717;28;20805;-70
2022/08/22 05:17:58;;;;;;;10.63;5.17;;;17.30;99.90;;;;;;10519588;28;20697;-70
2022/08/22 05:23:10;;;;;;;6.93;4.83;;;17.30;99.90;;;;;;10524735;28;20273;-70
2022/08/22 05:28:28;;;;;;;6.70;4.90;;;17.40;99.90;;;;;;10539574;27;20234;-70
2022/08/22 05:33:46;;;;;;;11.23;4.83;;;17.60;99.90;;;;;;10535933;27;20399;-73
2022/08/22 05:38:55;;;;;;;13.10;5.10;;;17.80;99.90;;;;;;10513803;28;20695;-72
2022/08/22 05:44:02;;;;;;;13.47;5.03;;;18.20;99.60;;;;;;10519342;28;20718;-73
2022/08/22 05:49:07;;;;;;;7.33;4.33;;;19.60;96.10;;;;;;10524430;28;20223;-73
2022/08/22 05:54:15;;;;;;;7.97;4.70;;;19.80;94.90;;;;;;10525281;28;20233;-72
2022/08/22 05:59:20;;;;;;;8.10;4.30;;;20.00;94.10;;;;;;10517802;28;20233;-72
2022/08/22 06:04:40;;;;;;;11.07;4.73;;;20.30;93.30;;;;;;10518430;28;20223;-71
2022/08/22 06:10:20;;;;;;;7.97;4.00;;;20.50;92.60;;;;;;10526327;28;20231;-72
2022/08/22 06:15:35;;;;;;;6.93;4.30;;;21.10;91.70;;;;;;10542693;27;20224;-72
2022/08/22 06:20:53;;;;;;;8.37;3.97;;;23.60;82.70;;;;;;10516559;28;20211;-72
2022/08/22 06:25:58;;;;;;;9.27;4.10;;;25.30;73.60;;;;;;10520299;27;20355;-72
2022/08/22 06:31:02;;;;;;;6.37;3.53;;;26.90;65.60;;;;;;10516194;27;20245;-73
2022/08/22 06:36:31;;;;;;;8.27;4.20;;;28.10;61.20;;;;;;10522326;28;20210;-72
2022/08/22 06:41:36;;;;;;;6.53;4.40;;;29.60;55.60;;;;;;10511803;27;20693;-72
2022/08/22 06:46:37;;;;;;;4.93;3.70;;;29.50;54.10;;;;;;10524507;27;20265;-72
2022/08/22 06:51:38;;;;;;;4.60;3.33;;;29.00;54.40;;;;;;10520609;28;20227;-73
2022/08/22 06:56:42;;;;;;;3.93;3.63;;;29.00;54.40;;;;;;10518476;27;20222;-73
2022/08/22 07:01:57;;;;;;;6.70;4.20;;;26.80;58.20;;;;;;10519136;28;20213;-73
2022/08/22 07:07:00;;;;;;;5.90;3.70;;;25.20;63.40;;;;;;10520294;27;20771;-73
2022/08/22 07:12:12;;;;;;;9.67;4.10;;;24.30;68.20;;;;;;10515732;28;20235;-73
2022/08/22 07:17:25;;;;;;;6.37;3.80;;;24.00;69.80;;;;;;10522435;27;20219;-73
2022/08/22 07:22:29;;;;;;;4.97;3.80;;;24.10;70.40;;;;;;10509251;28;20242;-72
2022/08/22 07:27:46;;;;;;;7.10;4.00;;;24.40;70.30;;;;;;10522541;27;20222;-72
2022/08/22 07:33:07;;;;;;;7.33;3.83;;;24.70;69.40;;;;;;10516262;27;20304;-73
2022/08/22 07:38:27;;;;;;;4.67;3.57;;;24.80;69.00;;;;;;10516249;28;20235;-72
2022/08/22 07:43:37;;;;;;;4.97;3.63;;;27.00;64.70;;;;;;10504955;28;20227;-72
2022/08/22 07:48:48;;;;;;;8.47;4.43;;;30.10;55.60;;;;;;10509826;28;20303;-72
2022/08/22 07:53:54;;;;;;;5.13;3.80;;;31.50;50.80;;;;;;10517920;28;20607;-72
2022/08/22 07:59:07;;;;;;;3.93;3.50;;;29.90;53.20;;;;;;10514021;28;20207;-72
2022/08/22 08:04:11;;;;;;;5.40;3.87;;;29.10;54.70;;;;;;10519886;28;20680;-72
2022/08/22 08:09:22;;;;;;;4.87;3.50;;;28.80;55.50;;;;;;10512884;28;20226;-72
2022/08/22 08:14:24;;;;;;;5.43;3.90;;;28.50;55.40;;;;;;10514255;28;20221;-72
2022/08/22 08:19:25;;;;;;;6.57;3.77;;;28.10;56.70;;;;;;10513522;28;20199;-73
2022/08/22 08:24:31;;;;;;;4.50;3.37;;;28.20;56.50;;;;;;10519296;28;20297;-73
2022/08/22 08:29:33;;;;;;;7.53;3.80;;;28.10;56.50;;;;;;10518970;28;20218;-73
2022/08/22 08:34:36;;;;;;;6.03;3.67;;;28.10;57.10;;;;;;10520716;28;20741;-71
2022/08/22 08:39:41;;;;;;;14.60;3.50;;;29.50;55.00;;;;;;10513628;28;20608;-74
2022/08/22 08:45:09;;;;;;;7.33;4.00;;;32.10;49.90;;;;;;10549628;27;20258;-71
2022/08/22 08:50:35;;;;;;;5.67;3.90;;;33.40;46.70;;;;;;10519934;28;20245;-73
2022/08/22 08:56:14;;;;;;;6.50;3.07;;;33.30;45.60;;;;;;10508044;28;20211;-72
2022/08/22 09:01:33;;;;;;;3.30;3.07;;;33.40;44.30;;;;;;10519347;28;20207;-72
2022/08/22 09:07:11;;;;;;;3.00;2.70;;;33.90;43.80;;;;;;10508265;28;20211;-73
2022/08/22 09:12:31;;;;;;;5.07;2.70;;;35.70;42.00;;;;;;10512127;28;20758;-73
2022/08/22 09:17:53;;;;;;;3.40;3.10;;;34.40;41.80;;;;;;10539558;28;20773;-73
2022/08/22 09:23:24;;;;;;;4.53;2.77;;;34.70;41.30;;;;;;10515182;28;20681;-73
2022/08/22 09:28:47;;;;;;;6.70;2.77;;;35.20;39.90;;;;;;10506221;28;20310;-73
2022/08/22 09:34:17;;;;;;;5.83;2.63;;;37.10;37.60;;;;;;10514298;28;20211;-73
2022/08/22 09:39:30;;;;;;;4.30;2.77;;;36.80;37.70;;;;;;10504577;28;20357;-73
2022/08/22 09:45:05;;;;;;;3.80;2.77;;;37.40;35.70;;;;;;10551436;27;20215;-73
2022/08/22 09:50:12;;;;;;;4.23;2.63;;;37.90;35.00;;;;;;10517233;28;20288;-73
2022/08/22 09:55:48;;;;;;;5.13;2.70;;;36.50;36.00;;;;;;10525424;28;20182;-75
2022/08/22 10:00:59;;;;;;;4.93;2.73;;;37.10;35.80;;;;;;10518510;28;20731;-73
2022/08/22 10:06:08;;;;;;;3.37;2.90;;;37.10;34.40;;;;;;10550295;27;20264;-74
2022/08/22 10:11:22;;;;;;;2.60;2.40;;;38.10;33.00;;;;;;10517812;28;20249;-72
2022/08/22 10:16:40;;;;;;;3.53;2.60;;;39.30;32.10;;;;;;10485901;28;20211;-73
2022/08/22 10:22:02;;;;;;;3.53;2.23;;;39.30;30.10;;;;;;10554691;27;20230;-73
2022/08/22 10:27:12;;;;;;;5.13;2.70;;;38.90;29.80;;;;;;10516307;28;20212;-73
2022/08/22 10:32:46;;;;;;;3.33;2.40;;;40.90;28.60;;;;;;10524089;28;20230;-72
2022/08/22 10:38:05;;;;;;;5.23;2.80;;;43.40;27.00;;;;;;10493348;28;20210;-73
2022/08/22 10:43:18;;;;;;;5.77;2.63;;;44.00;25.90;;;;;;10514765;28;20281;-73
2022/08/22 10:48:32;;;;;;;3.17;1.90;;;41.80;25.60;;;;;;10507706;28;20234;-72
2022/08/22 10:53:42;;;;;;;4.17;2.40;;;41.20;25.50;;;;;;10522031;28;20275;-73
2022/08/22 10:59:08;;;;;;;3.57;2.57;;;40.40;27.10;;;;;;10551576;27;20238;-73
2022/08/22 11:04:50;;;;;;;4.93;2.50;;;40.80;27.60;;;;;;10522879;28;20223;-73
2022/08/22 11:09:59;;;;;;;3.90;1.90;;;41.20;27.00;;;;;;10498773;28;20213;-73
2022/08/22 11:15:19;;;;;;;6.67;2.87;;;36.70;28.80;;;;;;10550376;27;20263;-72
2022/08/22 11:20:28;;;;;;;4.03;2.67;;;33.00;36.10;;;;;;10506193;28;21020;-72
2022/08/22 11:25:47;;;;;;;4.07;2.60;;;31.90;38.30;;;;;;10523275;28;20245;-72
2022/08/22 11:31:06;;;;;;;4.27;2.70;;;32.10;37.80;;;;;;10518314;28;20237;-72
2022/08/22 11:36:07;;;;;;;3.33;2.33;;;31.30;38.50;;;;;;10520694;28;20668;-72
2022/08/22 11:41:33;;;;;;;2.37;2.00;;;30.80;39.10;;;;;;10514634;28;20227;-72
2022/08/22 11:46:42;;;;;;;4.60;2.40;;;31.00;39.70;;;;;;10515731;28;20219;-72
2022/08/22 11:52:09;;;;;;;4.83;2.40;;;31.40;38.20;;;;;;10516030;28;20230;-72
2022/08/22 11:57:12;;;;;;;4.80;2.30;;;31.40;36.90;;;;;;10519634;28;20721;-72
2022/08/22 12:02:25;;;;;;;3.43;2.10;;;31.00;37.50;;;;;;10550466;27;20309;-72
2022/08/22 12:07:34;;;;;;;3.97;2.50;;;30.80;37.50;;;;;;10520293;28;20219;-72
2022/08/22 12:12:48;;;;;;;3.60;2.13;;;30.80;37.60;;;;;;10514521;28;20635;-72
2022/08/22 12:18:05;;;;;;;4.70;2.60;;;30.60;37.40;;;;;;10508298;28;20223;-72
2022/08/22 12:23:56;;;;;;;5.77;2.33;;;30.50;37.50;;;;;;10519254;28;20234;-73
2022/08/22 12:29:21;;;;;;;4.30;2.57;;;30.30;38.30;;;;;;10471966;28;20685;-73
2022/08/22 12:34:43;;;;;;;2.93;2.07;;;29.70;38.00;;;;;;10537037;28;20251;-72
2022/08/22 12:40:14;;;;;;;3.23;2.43;;;29.70;39.40;;;;;;10549888;27;20620;-72
2022/08/22 12:45:44;;;;;;;4.33;2.20;;;29.70;39.10;;;;;;10520421;28;20302;-72
2022/08/22 12:51:10;;;;;;;3.20;2.03;;;29.80;38.50;;;;;;10509842;28;20660;-72
2022/08/22 12:56:44;;;;;;;3.27;2.20;;;29.60;38.60;;;;;;10513178;28;20222;-73
2022/08/22 13:01:48;;;;;;;4.07;1.90;;;29.80;38.80;;;;;;10507000;28;20230;-72
2022/08/22 13:07:01;;;;;;;3.30;2.00;;;29.60;38.30;;;;;;10510587;28;20211;-72
2022/08/22 13:12:23;;;;;;;3.30;1.90;;;29.30;38.50;;;;;;10513674;28;20553;-72
2022/08/22 13:17:25;;;;;;;2.83;1.97;;;29.30;38.70;;;;;;10513459;28;20222;-72
2022/08/22 13:22:30;;;;;;;3.83;2.27;;;29.30;39.10;;;;;;10526436;28;20226;-73
2022/08/22 13:27:33;;;;;;;4.60;2.37;;;29.40;38.40;;;;;;10520926;28;20214;-72
2022/08/22 13:32:43;;;;;;;2.87;2.03;;;29.30;38.80;;;;;;10520915;28;20244;-72
2022/08/22 13:37:46;;;;;;;2.57;1.83;;;29.40;38.90;;;;;;10515624;28;20234;-72
2022/08/22 13:42:52;;;;;;;4.07;2.17;;;29.50;38.90;;;;;;10518342;28;20227;-72
2022/08/22 13:47:59;;;;;;;4.37;2.17;;;29.30;38.80;;;;;;10523293;28;20232;-73
2022/08/22 13:53:09;;;;;;;5.40;2.10;;;29.50;39.00;;;;;;10518775;28;20701;-72
2022/08/22 13:58:48;;;;;;;7.23;2.23;;;29.50;38.80;;;;;;10519370;28;20234;-72
2022/08/22 14:03:59;;;;;;;2.77;2.10;;;29.50;39.00;;;;;;10521535;28;20230;-72
2022/08/22 14:09:14;;;;;;;4.60;2.13;;;29.40;39.70;;;;;;10524311;28;20285;-72
2022/08/22 14:14:30;;;;;;;3.43;1.77;;;29.50;39.40;;;;;;10550182;27;20226;-72
2022/08/22 14:19:35;;;;;;;4.07;2.10;;;29.60;38.90;;;;;;10526554;28;20636;-72
2022/08/22 14:24:57;;;;;;;3.07;2.10;;;29.70;38.70;;;;;;10516264;28;20223;-72
2022/08/22 14:30:05;;;;;;;3.10;2.03;;;29.90;38.60;;;;;;10519878;28;20215;-72
2022/08/22 14:35:12;;;;;;;3.43;2.37;;;30.20;38.40;;;;;;10516596;28;20227;-73
2022/08/22 14:40:26;;;;;;;5.43;2.17;;;30.10;37.90;;;;;;10523211;28;20247;-73
2022/08/22 14:45:35;;;;;;;2.53;1.90;;;30.10;38.20;;;;;;10539435;27;20589;-72
2022/08/22 14:50:44;;;;;;;2.83;1.90;;;30.20;38.20;;;;;;10524936;28;20713;-73
2022/08/22 14:56:06;;;;;;;2.57;2.20;;;30.20;38.00;;;;;;10519199;28;20215;-73
2022/08/22 15:01:11;;;;;;;3.83;1.97;;;30.10;37.80;;;;;;10515259;28;20226;-73
2022/08/22 15:06:28;;;;;;;2.97;2.20;;;30.20;37.70;;;;;;10516805;28;20211;-73
2022/08/22 15:11:30;;;;;;;4.90;2.43;;;30.10;37.60;;;;;;10507293;28;20831;-73
2022/08/22 15:16:35;;;;;;;4.00;2.07;;;30.10;37.60;;;;;;10514573;28;20222;-73
2022/08/22 15:21:36;;;;;;;2.90;2.13;;;30.10;38.50;;;;;;10520743;28;20222;-73
2022/08/22 15:26:54;;;;;;;2.77;2.17;;;30.40;37.40;;;;;;10514212;28;20228;-72
2022/08/22 15:31:59;;;;;;;2.30;2.03;;;30.60;37.50;;;;;;10513426;28;20252;-72
2022/08/22 15:37:28;;;;;;;5.33;2.23;;;30.80;37.20;;;;;;10519007;28;20214;-72
2022/08/22 15:42:32;;;;;;;3.00;1.93;;;30.80;37.20;;;;;;10515826;28;20809;-73
2022/08/22 15:47:40;;;;;;;3.77;2.23;;;30.80;36.60;;;;;;10516085;28;20247;-73
2022/08/22 15:53:10;;;;;;;3.27;2.10;;;30.70;37.00;;;;;;10512932;28;20297;-73
2022/08/22 15:58:21;;;;;;;3.43;2.40;;;30.70;36.80;;;;;;10546756;27;20219;-73
2022/08/22 16:03:21;;;;;;;4.73;2.20;;;30.60;36.70;;;;;;10505816;28;20235;-73
2022/08/22 16:08:47;;;;;;;3.13;2.03;;;30.10;36.90;;;;;;10512423;28;20284;-73
2022/08/22 16:14:15;;;;;;;3.90;1.93;;;29.60;37.50;;;;;;10549448;27;20623;-73
2022/08/22 16:19:26;;;;;;;3.17;1.97;;;29.30;38.30;;;;;;10512725;28;20701;-73
2022/08/22 16:24:29;;;;;;;4.57;2.23;;;29.20;38.40;;;;;;10507240;28;20577;-73
2022/08/22 16:29:32;;;;;;;3.87;2.03;;;29.10;38.80;;;;;;10551128;27;20239;-73
2022/08/22 16:34:44;;;;;;;4.00;1.83;;;28.90;38.60;;;;;;10514220;28;20677;-73
2022/08/22 16:39:56;;;;;;;3.00;1.83;;;28.70;39.00;;;;;;10519935;28;20215;-73
2022/08/22 16:45:17;;;;;;;3.93;2.07;;;28.60;39.90;;;;;;10514198;28;20223;-73
2022/08/22 16:50:18;;;;;;;2.33;1.63;;;28.50;39.10;;;;;;10527454;28;20214;-73
2022/08/22 16:55:34;;;;;;;3.67;2.00;;;28.40;39.20;;;;;;10520806;28;20657;-73
2022/08/22 17:01:13;;;;;;;3.10;1.80;;;28.30;39.50;;;;;;10526614;27;20231;-73
2022/08/22 17:06:31;;;;;;;3.00;1.70;;;28.20;39.60;;;;;;10534755;28;20279;-73
2022/08/22 17:12:05;;;;;;;3.03;1.83;;;28.20;40.00;;;;;;10515003;27;20313;-73
2022/08/22 17:17:34;;;;;;;5.27;1.93;;;28.00;40.00;;;;;;10518511;28;20217;-73
2022/08/22 17:23:06;;;;;;;2.67;1.90;;;27.90;40.40;;;;;;10514403;28;20225;-73
2022/08/22 17:28:21;;;;;;;4.13;2.23;;;27.80;41.10;;;;;;10520985;27;20305;-73
2022/08/22 17:33:58;;;;;;;5.23;2.20;;;27.70;41.10;;;;;;10520530;27;20246;-73
2022/08/22 17:39:14;;;;;;;4.37;2.23;;;27.60;41.60;;;;;;10519954;28;20256;-72
2022/08/22 17:44:20;;;;;;;3.90;2.13;;;27.50;41.70;;;;;;10525648;27;20221;-73
2022/08/22 17:49:46;;;;;;;4.90;2.00;;;27.40;42.20;;;;;;10502464;28;20236;-73
2022/08/22 17:54:55;;;;;;;2.07;1.83;;;27.20;42.60;;;;;;10478487;28;20269;-73
2022/08/22 18:00:14;;;;;;;4.07;2.07;;;27.10;42.90;;;;;;10518729;28;20230;-74
2022/08/22 18:05:26;;;;;;;2.83;1.93;;;27.00;43.10;;;;;;10522835;28;20267;-71
2022/08/22 18:10:57;;;;;;;2.37;1.90;;;26.90;43.30;;;;;;10508492;28;20226;-70
2022/08/22 18:16:02;;;;;;;3.23;1.73;;;26.70;43.50;;;;;;10512904;28;20220;-69
2022/08/22 18:21:13;;;;;;;4.37;2.03;;;26.70;43.80;;;;;;10525613;28;20225;-72
2022/08/22 18:26:36;;;;;;;4.47;2.10;;;26.50;44.10;;;;;;10524382;28;20217;-71
2022/08/22 18:32:27;;;;;;;8.73;2.30;;;26.30;44.50;;;;;;10511396;28;20276;-71
2022/08/22 18:37:31;;;;;;;7.53;3.00;;;26.20;44.90;;;;;;10509003;28;20211;-70
2022/08/22 18:42:42;;;;;;;5.27;2.80;;;26.10;45.10;;;;;;10522509;28;20306;-70
2022/08/22 18:47:53;;;;;;;4.77;2.70;;;26.00;45.50;;;;;;10516124;28;20249;-70
2022/08/22 18:52:54;;;;;;;5.97;2.53;;;25.90;45.80;;;;;;10520348;28;20206;-70
2022/08/22 18:58:28;;;;;;;6.77;3.60;;;25.70;46.10;;;;;;10515039;28;20218;-70
2022/08/22 19:03:47;;;;;;;6.37;3.00;;;25.60;46.60;;;;;;10515478;28;20254;-73
2022/08/22 19:09:25;;;;;;;4.50;3.23;;;25.50;47.10;;;;;;10520220;28;20763;-72
2022/08/22 19:14:44;;;;;;;7.50;3.47;;;25.40;47.40;;;;;;10509373;28;20776;-73
2022/08/22 19:25:25;;;;;;;8.50;3.57;;;25.20;47.90;;;;;;10506834;28;20208;-71
2022/08/22 19:30:51;;;;;;;6.63;2.87;;;25.00;48.10;;;;;;10520610;28;20261;-73
2022/08/22 19:35:52;;;;;;;3.20;2.40;;;24.90;48.20;;;;;;10516962;28;20230;-72
2022/08/22 19:40:55;;;;;;;4.03;2.40;;;24.80;48.70;;;;;;10516655;28;20234;-71
2022/08/22 19:45:58;;;;;;;5.97;2.50;;;24.80;48.00;;;;;;10509489;28;20207;-71
2022/08/22 19:51:27;;;;;;;6.50;2.20;;;24.70;48.00;;;;;;10513998;28;20301;-73
2022/08/22 19:57:02;;;;;;;3.23;2.03;;;24.70;48.10;;;;;;10504660;28;20219;-71
2022/08/22 20:02:33;;;;;;;4.27;2.17;;;24.70;48.00;;;;;;10520988;28;20230;-70
2022/08/22 20:07:52;;;;;;;4.03;2.00;;;24.70;47.90;;;;;;10498766;28;20284;-70
2022/08/22 20:13:05;;;;;;;4.50;1.93;;;24.70;48.00;;;;;;10515625;28;20733;-70
2022/08/22 20:18:06;;;;;;;3.20;1.70;;;24.60;47.80;;;;;;10515071;28;20246;-71
2022/08/22 20:23:25;;;;;;;4.83;2.20;;;24.60;48.00;;;;;;10511575;28;20729;-70
2022/08/22 20:28:32;;;;;;;4.40;2.30;;;24.60;48.20;;;;;;10507994;28;20211;-72
2022/08/22 20:33:37;;;;;;;4.33;2.10;;;24.50;48.40;;;;;;10513102;28;20226;-71
2022/08/22 20:38:49;;;;;;;3.10;2.07;;;24.30;48.70;;;;;;10517011;28;20611;-72
2022/08/22 20:43:55;;;;;;;5.47;1.80;;;24.20;48.90;;;;;;10519785;28;20675;-71
2022/08/22 20:49:00;;;;;;;3.60;1.93;;;24.20;49.10;;;;;;10517233;28;20226;-72
2022/08/22 20:54:14;;;;;;;4.43;1.80;;;24.10;49.50;;;;;;10513881;28;20223;-71
2022/08/22 20:59:26;;;;;;;6.00;2.00;;;24.00;49.60;;;;;;10511230;28;20217;-70
2022/08/22 21:04:37;;;;;;;2.70;1.63;;;24.00;49.80;;;;;;10512651;28;20744;-71
2022/08/22 21:14:57;;;;;;;3.37;1.90;;;24.00;50.00;;;;;;10511527;28;20215;-70
2022/08/22 21:20:18;;;;;;;3.63;2.00;;;24.00;50.00;;;;;;10513911;28;20215;-71
2022/08/22 21:25:18;;;;;;;3.70;2.03;;;24.00;50.10;;;;;;10518848;28;20245;-70
2022/08/22 21:30:25;;;;;;;2.80;1.43;;;24.00;50.10;;;;;;10494280;28;20218;-70
2022/08/22 21:35:29;;;;;;;3.40;1.63;;;24.10;50.10;;;;;;10513728;28;20310;-71
2022/08/22 21:40:36;;;;;;;2.63;1.67;;;24.20;50.20;;;;;;10516248;28;20223;-70
2022/08/22 21:45:36;;;;;;;5.47;2.00;;;24.20;50.20;;;;;;10517968;28;20215;-70
2022/08/22 21:50:39;;;;;;;4.00;2.20;;;24.10;50.70;;;;;;10523000;28;20214;-70
2022/08/22 21:55:43;;;;;;;2.90;1.80;;;23.90;50.90;;;;;;10520715;28;20225;-70
2022/08/22 22:01:01;;;;;;;5.43;1.77;;;23.90;51.10;;;;;;10522002;28;20236;-71
2022/08/22 22:06:04;;;;;;;4.37;2.10;;;23.90;51.20;;;;;;10522735;28;20349;-70
2022/08/22 22:11:09;;;;;;;7.13;2.40;;;23.80;51.50;;;;;;10519223;28;20690;-70
2022/08/22 22:16:11;;;;;;;4.20;2.00;;;23.70;52.00;;;;;;10523146;28;20226;-73
2022/08/22 22:21:12;;;;;;;5.57;2.00;;;23.50;52.40;;;;;;10508660;28;20228;-73
2022/08/22 22:26:13;;;;;;;4.13;2.30;;;23.50;52.80;;;;;;10517390;28;20223;-72
2022/08/22 22:31:17;;;;;;;3.23;2.27;;;23.40;52.90;;;;;;10522342;28;20231;-70
2022/08/22 22:36:22;;;;;;;3.23;2.10;;;23.20;53.40;;;;;;10516550;28;20215;-73
2022/08/22 22:41:24;;;;;;;5.50;2.30;;;23.00;53.80;;;;;;10508772;28;20226;-73
2022/08/22 22:46:25;;;;;;;3.97;1.90;;;22.90;54.80;;;;;;10523047;28;20295;-74
2022/08/22 22:51:26;;;;;;;3.73;2.20;;;22.80;54.60;;;;;;10524137;28;20232;-73
2022/08/22 22:56:27;;;;;;;2.23;1.70;;;22.60;54.80;;;;;;10516375;28;20294;-72
2022/08/22 23:01:27;;;;;;;4.10;2.10;;;22.50;55.60;;;;;;10515915;28;20658;-71
2022/08/22 23:06:30;;;;;;;2.77;1.87;;;22.20;56.00;;;;;;10521853;28;20313;-70
2022/08/22 23:11:34;;;;;;;2.20;2.00;;;22.10;56.90;;;;;;10513671;28;20227;-70
2022/08/22 23:16:39;;;;;;;2.77;1.97;;;22.00;57.10;;;;;;10510172;28;20690;-71
2022/08/22 23:21:40;;;;;;;3.73;1.83;;;21.90;57.70;;;;;;10521392;28;20231;-70
2022/08/22 23:26:42;;;;;;;2.50;2.10;;;21.70;58.30;;;;;;10519340;28;20231;-72
2022/08/22 23:31:50;;;;;;;3.93;2.20;;;21.60;59.10;;;;;;10516393;28;20226;-71
2022/08/22 23:36:52;;;;;;;3.87;2.00;;;21.70;57.90;;;;;;10517716;28;20242;-72
2022/08/22 23:41:53;;;;;;;4.63;2.10;;;21.80;58.20;;;;;;10512825;28;20281;-72
2022/08/22 23:46:55;;;;;;;4.00;1.90;;;21.80;58.00;;;;;;10515798;28;20219;-71
2022/08/22 23:51:56;;;;;;;3.03;2.20;;;21.80;58.00;;;;;;10516154;28;20685;-71
2022/08/22 23:56:59;;;;;;;3.13;2.10;;;21.80;58.00;;;;;;10519206;28;20711;-72
